Time;durP1;ratioP1;P1;durP2;ratioP2;P2;SDS_P1;SDS_P2;PMS_P1;PMS_P2;Temp;Humidity;BMP_temperature;BMP_pressure;BME280_temperature;BME280_humidity;BME280_pressure;Samples;Min_cycle;Max_cycle;Signal;HPM_P1;HPM_P2
2022/03/16 00:00:56;;;;;;;0.20;0.20;;;;;;;;;;5089934;28;20028;-78
2022/03/16 00:03:22;;;;;;;0.93;0.93;;;;;;;;;;5076916;28;20032;-78
2022/03/16 00:05:47;;;;;;;0.60;0.60;;;;;;;;;;5087439;28;20097;-76
2022/03/16 00:08:16;;;;;;;1.27;1.17;;;;;;;;;;5085836;28;20039;-78
2022/03/16 00:10:42;;;;;;;0.57;0.57;;;;;;;;;;5089853;28;20037;-77
2022/03/16 00:13:08;;;;;;;1.13;1.05;;;;;;;;;;5070493;28;20028;-77
2022/03/16 00:15:34;;;;;;;1.33;1.15;;;;;;;;;;5076110;28;20423;-77
2022/03/16 00:18:00;;;;;;;0.30;0.30;;;;;;;;;;5073462;28;20111;-77
2022/03/16 00:20:26;;;;;;;0.60;0.60;;;;;;;;;;5072784;28;20028;-77
2022/03/16 00:22:52;;;;;;;0.40;0.40;;;;;;;;;;5074395;28;20486;-78
2022/03/16 00:25:18;;;;;;;0.20;0.20;;;;;;;;;;5086529;28;20020;-78
2022/03/16 00:27:45;;;;;;;2.17;0.70;;;;;;;;;;5082159;28;20030;-78
2022/03/16 00:30:11;;;;;;;0.57;0.57;;;;;;;;;;5079436;28;20082;-77
2022/03/16 00:32:37;;;;;;;0.77;0.77;;;;;;;;;;5083584;28;20027;-77
2022/03/16 00:35:04;;;;;;;0.68;0.60;;;;;;;;;;5085343;28;20016;-77
2022/03/16 00:37:32;;;;;;;1.48;1.38;;;;;;;;;;5087907;28;20054;-77
2022/03/16 00:39:58;;;;;;;2.00;1.00;;;;;;;;;;5084130;28;20028;-77
2022/03/16 00:42:24;;;;;;;1.80;1.27;;;;;;;;;;5072516;28;20056;-77
2022/03/16 00:44:50;;;;;;;1.23;1.13;;;;;;;;;;5081983;28;20666;-77
2022/03/16 00:47:16;;;;;;;5.15;0.52;;;;;;;;;;5082058;28;20031;-77
2022/03/16 00:49:42;;;;;;;0.35;0.35;;;;;;;;;;5076956;28;20039;-78
2022/03/16 00:52:08;;;;;;;1.30;0.52;;;;;;;;;;5083811;28;20044;-77
2022/03/16 00:54:34;;;;;;;1.30;1.20;;;;;;;;;;5088043;28;20020;-77
2022/03/16 00:57:01;;;;;;;10.55;1.42;;;;;;;;;;5075269;28;20036;-77
2022/03/16 00:59:26;;;;;;;0.52;0.52;;;;;;;;;;5073357;28;20035;-77
2022/03/16 01:01:52;;;;;;;1.17;1.05;;;;;;;;;;5077257;28;20389;-77
2022/03/16 01:04:19;;;;;;;0.55;0.55;;;;;;;;;;5082989;28;20025;-77
2022/03/16 01:06:44;;;;;;;0.38;0.38;;;;;;;;;;5082564;28;20043;-78
2022/03/16 01:09:10;;;;;;;1.15;0.95;;;;;;;;;;5080554;28;20029;-77
2022/03/16 01:11:37;;;;;;;25.95;1.25;;;;;;;;;;5082891;28;20025;-77
2022/03/16 01:14:03;;;;;;;0.50;0.50;;;;;;;;;;5081792;28;20035;-78
2022/03/16 01:16:29;;;;;;;0.47;0.47;;;;;;;;;;5076763;28;20033;-77
2022/03/16 01:18:55;;;;;;;0.95;0.95;;;;;;;;;;5085616;28;20017;-77
2022/03/16 01:21:21;;;;;;;3.55;2.03;;;;;;;;;;5077739;28;20024;-77
2022/03/16 01:23:47;;;;;;;1.25;0.73;;;;;;;;;;5084167;28;20445;-77
2022/03/16 01:26:13;;;;;;;0.45;0.45;;;;;;;;;;5082539;28;20028;-77
2022/03/16 01:28:39;;;;;;;0.38;0.38;;;;;;;;;;5079314;28;20470;-78
2022/03/16 01:31:04;;;;;;;2.92;2.33;;;;;;;;;;5085600;28;20056;-77
2022/03/16 01:33:30;;;;;;;0.70;0.63;;;;;;;;;;5082272;28;20032;-77
2022/03/16 01:35:57;;;;;;;1.25;0.77;;;;;;;;;;5085764;28;20485;-77
2022/03/16 01:38:22;;;;;;;0.75;0.75;;;;;;;;;;5087100;28;20035;-77
2022/03/16 01:40:48;;;;;;;0.60;0.52;;;;;;;;;;5079712;28;20060;-77
2022/03/16 01:43:14;;;;;;;1.65;1.08;;;;;;;;;;5086866;28;20057;-77
2022/03/16 01:45:47;;;;;;;1.13;1.02;;;;;;;;;;5080200;28;20098;-77
2022/03/16 01:48:13;;;;;;;0.52;0.52;;;;;;;;;;5082182;28;20028;-77
2022/03/16 01:50:39;;;;;;;1.95;1.40;;;;;;;;;;5090180;28;20085;-77
2022/03/16 01:53:05;;;;;;;0.68;0.68;;;;;;;;;;5081546;28;20032;-77
2022/03/16 01:55:31;;;;;;;0.40;0.40;;;;;;;;;;5089226;28;20024;-77
2022/03/16 01:57:57;;;;;;;0.93;0.85;;;;;;;;;;5088205;28;20031;-77
2022/03/16 02:00:24;;;;;;;0.95;0.82;;;;;;;;;;5077472;28;20040;-77
2022/03/16 02:02:49;;;;;;;0.30;0.30;;;;;;;;;;5085526;28;20034;-77
2022/03/16 02:05:15;;;;;;;2.28;0.80;;;;;;;;;;5080443;28;20024;-77
2022/03/16 02:07:43;;;;;;;0.57;0.43;;;;;;;;;;5075917;28;20040;-77
2022/03/16 02:10:09;;;;;;;0.30;0.30;;;;;;;;;;5089012;28;20032;-77
2022/03/16 02:12:49;;;;;;;0.38;0.38;;;;;;;;;;5089326;28;20036;-77
2022/03/16 02:15:15;;;;;;;0.10;0.10;;;;;;;;;;5086728;28;20077;-77
2022/03/16 02:17:41;;;;;;;0.20;0.20;;;;;;;;;;5084600;28;20031;-78
2022/03/16 02:20:08;;;;;;;1.13;0.68;;;;;;;;;;5088146;28;20020;-77
2022/03/16 02:22:36;;;;;;;0.68;0.68;;;;;;;;;;5083989;28;20032;-77
2022/03/16 02:25:02;;;;;;;1.02;1.02;;;;;;;;;;5080525;28;20035;-77
2022/03/16 02:27:28;;;;;;;0.10;0.10;;;;;;;;;;5090886;28;20028;-78
2022/03/16 02:29:54;;;;;;;0.40;0.40;;;;;;;;;;5086310;28;20524;-77
2022/03/16 02:32:20;;;;;;;2.30;1.55;;;;;;;;;;5087283;28;20024;-77
2022/03/16 02:34:46;;;;;;;0.40;0.40;;;;;;;;;;5084841;28;20466;-77
2022/03/16 02:37:12;;;;;;;0.57;0.55;;;;;;;;;;5082734;28;20028;-77
2022/03/16 02:39:38;;;;;;;1.45;1.35;;;;;;;;;;5084816;28;20161;-77
2022/03/16 02:42:05;;;;;;;0.30;0.30;;;;;;;;;;5082726;28;20032;-77
2022/03/16 02:44:31;;;;;;;0.45;0.43;;;;;;;;;;5077662;28;20039;-77
2022/03/16 02:46:57;;;;;;;0.20;0.20;;;;;;;;;;5083536;28;20028;-77
2022/03/16 02:49:23;;;;;;;2.28;1.15;;;;;;;;;;5090294;28;20035;-78
2022/03/16 02:51:49;;;;;;;0.60;0.60;;;;;;;;;;5091040;28;20464;-77
2022/03/16 02:54:15;;;;;;;0.22;0.22;;;;;;;;;;5083918;28;20020;-77
2022/03/16 02:56:40;;;;;;;1.30;1.20;;;;;;;;;;5086925;28;20016;-77
2022/03/16 02:59:06;;;;;;;0.93;0.88;;;;;;;;;;5078640;28;20039;-77
2022/03/16 03:01:32;;;;;;;0.30;0.30;;;;;;;;;;5088260;28;20020;-77
2022/03/16 03:03:58;;;;;;;0.80;0.80;;;;;;;;;;5080254;28;20551;-77
2022/03/16 03:06:24;;;;;;;1.50;0.85;;;;;;;;;;5076480;28;20043;-77
2022/03/16 03:08:50;;;;;;;0.45;0.38;;;;;;;;;;5088481;28;20386;-77
2022/03/16 03:11:16;;;;;;;0.20;0.20;;;;;;;;;;5077731;28;20028;-77
2022/03/16 03:13:43;;;;;;;0.10;0.10;;;;;;;;;;5085642;28;20047;-77
2022/03/16 03:16:09;;;;;;;1.45;0.95;;;;;;;;;;5079602;28;20399;-77
2022/03/16 03:18:35;;;;;;;0.52;0.52;;;;;;;;;;5078865;28;20077;-77
2022/03/16 03:21:02;;;;;;;0.68;0.68;;;;;;;;;;5085308;28;20035;-77
2022/03/16 03:23:28;;;;;;;0.82;0.82;;;;;;;;;;5089023;28;20270;-77
2022/03/16 03:25:54;;;;;;;0.80;0.80;;;;;;;;;;5084315;28;20110;-77
2022/03/16 03:28:20;;;;;;;2.83;1.15;;;;;;;;;;5083889;28;20028;-77
2022/03/16 03:30:46;;;;;;;0.75;0.75;;;;;;;;;;5077602;28;20053;-77
2022/03/16 03:33:12;;;;;;;0.85;0.85;;;;;;;;;;5087979;28;20024;-77
2022/03/16 03:35:38;;;;;;;0.50;0.50;;;;;;;;;;5088239;28;20466;-77
2022/03/16 03:38:04;;;;;;;0.28;0.28;;;;;;;;;;5084350;28;20082;-77
2022/03/16 03:40:30;;;;;;;0.20;0.20;;;;;;;;;;5080428;28;20031;-77
2022/03/16 03:42:56;;;;;;;0.10;0.10;;;;;;;;;;5075437;28;20108;-77
2022/03/16 03:45:21;;;;;;;1.27;1.27;;;;;;;;;;5075177;28;20462;-77
2022/03/16 03:47:47;;;;;;;2.33;1.83;;;;;;;;;;5078169;28;20036;-78
2022/03/16 03:50:13;;;;;;;0.57;0.57;;;;;;;;;;5085479;28;20020;-78
2022/03/16 03:52:39;;;;;;;0.45;0.45;;;;;;;;;;5079921;28;20093;-76
2022/03/16 03:55:05;;;;;;;0.93;0.70;;;;;;;;;;5081877;28;20534;-77
2022/03/16 03:57:31;;;;;;;0.43;0.30;;;;;;;;;;5078478;28;20514;-77
2022/03/16 03:59:57;;;;;;;0.80;0.80;;;;;;;;;;5080172;28;20020;-77
2022/03/16 04:02:23;;;;;;;3.20;1.25;;;;;;;;;;5080537;28;20039;-76
2022/03/16 04:04:49;;;;;;;2.10;1.20;;;;;;;;;;5080926;28;20032;-76
2022/03/16 04:07:15;;;;;;;1.30;1.00;;;;;;;;;;5087022;28;20040;-77
2022/03/16 04:09:41;;;;;;;0.38;0.38;;;;;;;;;;5084198;28;20386;-76
2022/03/16 04:12:07;;;;;;;3.38;2.33;;;;;;;;;;5085002;28;20036;-77
2022/03/16 04:14:33;;;;;;;2.30;1.35;;;;;;;;;;5089617;28;20024;-77
2022/03/16 04:16:59;;;;;;;1.45;0.80;;;;;;;;;;5076827;28;20540;-77
2022/03/16 04:19:25;;;;;;;0.90;0.65;;;;;;;;;;5081108;28;20031;-77
2022/03/16 04:21:51;;;;;;;0.32;0.32;;;;;;;;;;5084410;28;20458;-76
2022/03/16 04:24:17;;;;;;;2.63;2.22;;;;;;;;;;5082732;28;20035;-77
2022/03/16 04:26:43;;;;;;;0.57;0.25;;;;;;;;;;5077058;28;20021;-76
2022/03/16 04:29:08;;;;;;;2.70;0.80;;;;;;;;;;5083033;28;20425;-77
2022/03/16 04:31:35;;;;;;;0.65;0.65;;;;;;;;;;5078893;28;20434;-77
2022/03/16 04:34:01;;;;;;;0.10;0.10;;;;;;;;;;5078857;28;20047;-76
2022/03/16 04:36:29;;;;;;;0.17;0.17;;;;;;;;;;5077675;28;20044;-76
2022/03/16 04:38:57;;;;;;;0.10;0.10;;;;;;;;;;5083560;28;20111;-77
2022/03/16 04:41:23;;;;;;;0.75;0.75;;;;;;;;;;5080240;28;20070;-76
2022/03/16 04:43:49;;;;;;;0.77;0.77;;;;;;;;;;5082663;28;20028;-77
2022/03/16 04:46:15;;;;;;;1.58;0.98;;;;;;;;;;5080362;28;20032;-77
2022/03/16 04:48:41;;;;;;;1.42;1.33;;;;;;;;;;5076811;28;20114;-76
2022/03/16 04:51:07;;;;;;;0.30;0.30;;;;;;;;;;5091718;28;20043;-76
2022/03/16 04:53:33;;;;;;;5.05;0.95;;;;;;;;;;5086256;28;20032;-76
2022/03/16 04:55:59;;;;;;;0.80;0.80;;;;;;;;;;5083400;28;20067;-77
2022/03/16 04:58:25;;;;;;;0.28;0.28;;;;;;;;;;5081290;28;20024;-76
2022/03/16 05:00:51;;;;;;;1.27;0.90;;;;;;;;;;5072100;28;20031;-76
2022/03/16 05:03:16;;;;;;;0.57;0.57;;;;;;;;;;5091050;28;20026;-77
2022/03/16 05:05:42;;;;;;;0.40;0.40;;;;;;;;;;5084948;28;20433;-77
2022/03/16 05:08:08;;;;;;;8.32;2.20;;;;;;;;;;5090839;28;20035;-77
2022/03/16 05:10:34;;;;;;;22.48;2.13;;;;;;;;;;5090132;28;20027;-77
2022/03/16 05:13:00;;;;;;;2.55;1.25;;;;;;;;;;5086069;28;20089;-76
2022/03/16 05:15:26;;;;;;;1.02;1.00;;;;;;;;;;5082725;28;20020;-76
2022/03/16 05:17:52;;;;;;;2.72;1.60;;;;;;;;;;5091306;28;20089;-77
2022/03/16 05:20:18;;;;;;;7.78;2.10;;;;;;;;;;5085937;28;20272;-77
2022/03/16 05:22:46;;;;;;;1.50;1.40;;;;;;;;;;5080842;28;20073;-76
2022/03/16 05:25:13;;;;;;;6.60;2.58;;;;;;;;;;5090755;28;20028;-76
2022/03/16 05:27:40;;;;;;;3.95;1.90;;;;;;;;;;5087919;28;20044;-76
2022/03/16 05:30:07;;;;;;;3.13;2.38;;;;;;;;;;5087706;28;20415;-77
2022/03/16 05:32:33;;;;;;;1.25;1.25;;;;;;;;;;5077945;28;20490;-77
2022/03/16 05:34:59;;;;;;;3.08;2.72;;;;;;;;;;5090028;28;20064;-77
2022/03/16 05:37:25;;;;;;;0.93;0.93;;;;;;;;;;5084771;28;20517;-76
2022/03/16 05:39:52;;;;;;;3.50;2.47;;;;;;;;;;5087098;28;20020;-77
2022/03/16 05:42:18;;;;;;;3.63;3.05;;;;;;;;;;5084532;28;20017;-76
2022/03/16 05:44:44;;;;;;;6.88;1.52;;;;;;;;;;5078023;28;20106;-76
2022/03/16 05:47:11;;;;;;;1.80;1.67;;;;;;;;;;5082666;28;20020;-77
2022/03/16 05:49:37;;;;;;;4.00;2.13;;;;;;;;;;5079657;28;20028;-77
2022/03/16 05:52:04;;;;;;;7.97;2.45;;;;;;;;;;5076618;28;20128;-76
2022/03/16 05:54:29;;;;;;;10.30;5.28;;;;;;;;;;5076505;28;20024;-74
2022/03/16 05:56:55;;;;;;;4.75;3.72;;;;;;;;;;5082855;28;20024;-73
2022/03/16 05:59:21;;;;;;;4.32;2.38;;;;;;;;;;5075534;28;20683;-73
2022/03/16 06:01:48;;;;;;;0.75;0.75;;;;;;;;;;5082532;28;20031;-73
2022/03/16 06:04:14;;;;;;;0.73;0.73;;;;;;;;;;5087353;28;20063;-73
2022/03/16 06:06:40;;;;;;;1.35;0.95;;;;;;;;;;5087292;28;20677;-73
2022/03/16 06:09:06;;;;;;;1.23;1.13;;;;;;;;;;5087557;28;20090;-73
2022/03/16 06:11:32;;;;;;;1.40;1.30;;;;;;;;;;5081715;28;20028;-74
2022/03/16 06:13:58;;;;;;;0.57;0.57;;;;;;;;;;5078210;28;20020;-72
2022/03/16 06:16:24;;;;;;;2.65;1.23;;;;;;;;;;5085014;28;20103;-71
2022/03/16 06:18:50;;;;;;;2.95;1.75;;;;;;;;;;5076629;28;20153;-72
2022/03/16 06:21:16;;;;;;;0.63;0.63;;;;;;;;;;5083092;28;20114;-72
2022/03/16 06:23:42;;;;;;;1.38;1.27;;;;;;;;;;5077316;28;20183;-72
2022/03/16 06:26:09;;;;;;;3.03;1.13;;;;;;;;;;5081941;28;20100;-73
2022/03/16 06:28:34;;;;;;;0.35;0.30;;;;;;;;;;5079553;28;20024;-72
2022/03/16 06:31:00;;;;;;;0.60;0.60;;;;;;;;;;5082038;28;20039;-72
2022/03/16 06:33:26;;;;;;;0.47;0.47;;;;;;;;;;5075059;28;20028;-72
2022/03/16 06:35:52;;;;;;;2.83;2.35;;;;;;;;;;5078145;28;20025;-75
2022/03/16 06:38:18;;;;;;;1.35;1.25;;;;;;;;;;5084267;28;20502;-76
2022/03/16 06:40:44;;;;;;;0.65;0.65;;;;;;;;;;5075961;28;20031;-71
2022/03/16 06:43:10;;;;;;;0.65;0.57;;;;;;;;;;5078524;28;20084;-73
2022/03/16 06:45:36;;;;;;;2.35;1.60;;;;;;;;;;5079536;28;20077;-72
2022/03/16 06:48:03;;;;;;;1.63;0.80;;;;;;;;;;5078262;28;20114;-73
2022/03/16 06:50:29;;;;;;;1.02;0.88;;;;;;;;;;5071384;28;20571;-74
2022/03/16 06:53:11;;;;;;;4.40;1.40;;;;;;;;;;5074911;28;20119;-76
2022/03/16 06:55:37;;;;;;;0.75;0.75;;;;;;;;;;5073683;28;20012;-76
2022/03/16 06:58:03;;;;;;;1.08;1.08;;;;;;;;;;5076492;28;20466;-77
2022/03/16 07:00:29;;;;;;;17.98;2.30;;;;;;;;;;5081055;28;20032;-76
2022/03/16 07:03:02;;;;;;;1.38;0.95;;;;;;;;;;5075425;28;20024;-76
2022/03/16 07:05:35;;;;;;;0.65;0.65;;;;;;;;;;5067994;28;20078;-77
2022/03/16 07:08:02;;;;;;;2.17;1.55;;;;;;;;;;5079490;28;20119;-77
2022/03/16 07:10:29;;;;;;;0.68;0.68;;;;;;;;;;5075233;28;20030;-77
2022/03/16 07:12:55;;;;;;;1.17;1.13;;;;;;;;;;5072637;28;20119;-77
2022/03/16 07:15:21;;;;;;;0.88;0.88;;;;;;;;;;5073703;28;20108;-77
2022/03/16 07:17:47;;;;;;;0.73;0.73;;;;;;;;;;5072733;28;20102;-77
2022/03/16 07:20:13;;;;;;;0.28;0.28;;;;;;;;;;5072790;28;20024;-77
2022/03/16 07:22:39;;;;;;;1.80;1.65;;;;;;;;;;5083254;28;20036;-77
2022/03/16 07:25:09;;;;;;;0.68;0.68;;;;;;;;;;5075666;28;20020;-77
2022/03/16 07:27:35;;;;;;;2.55;0.40;;;;;;;;;;5075234;28;20047;-77
2022/03/16 07:30:01;;;;;;;0.73;0.73;;;;;;;;;;5066020;28;20092;-77
2022/03/16 07:32:27;;;;;;;3.00;1.50;;;;;;;;;;5070642;28;20023;-77
2022/03/16 07:34:53;;;;;;;1.42;1.30;;;;;;;;;;5076425;28;20020;-77
2022/03/16 07:37:19;;;;;;;1.08;0.82;;;;;;;;;;5070574;28;20036;-77
2022/03/16 07:39:45;;;;;;;2.38;1.58;;;;;;;;;;5068048;28;20394;-77
2022/03/16 07:42:11;;;;;;;1.13;1.08;;;;;;;;;;5077944;28;20115;-77
2022/03/16 07:44:37;;;;;;;0.73;0.73;;;;;;;;;;5074066;28;20621;-77
2022/03/16 07:47:03;;;;;;;2.13;2.03;;;;;;;;;;5078778;28;20028;-76
2022/03/16 07:49:30;;;;;;;1.02;0.95;;;;;;;;;;5079710;28;20038;-77
2022/03/16 07:51:56;;;;;;;1.52;1.42;;;;;;;;;;5082702;28;20032;-77
2022/03/16 07:54:22;;;;;;;1.67;1.48;;;;;;;;;;5080611;28;20030;-77
2022/03/16 07:56:48;;;;;;;1.17;1.15;;;;;;;;;;5072725;28;20032;-76
2022/03/16 07:59:15;;;;;;;0.28;0.28;;;;;;;;;;5073164;28;20051;-75
2022/03/16 08:01:41;;;;;;;0.65;0.65;;;;;;;;;;5079265;28;20122;-75
2022/03/16 08:04:07;;;;;;;1.55;1.48;;;;;;;;;;5074022;28;20103;-74
2022/03/16 08:06:33;;;;;;;0.50;0.50;;;;;;;;;;5074073;28;20048;-73
2022/03/16 08:08:59;;;;;;;0.43;0.43;;;;;;;;;;5083638;28;20042;-77
2022/03/16 08:11:25;;;;;;;4.22;1.20;;;;;;;;;;5069691;28;20047;-73
2022/03/16 08:13:51;;;;;;;0.47;0.47;;;;;;;;;;5077434;28;20059;-72
2022/03/16 08:16:17;;;;;;;0.75;0.75;;;;;;;;;;5072261;28;20463;-73
2022/03/16 08:18:43;;;;;;;0.57;0.57;;;;;;;;;;5076532;28;20122;-72
2022/03/16 08:21:11;;;;;;;1.02;0.98;;;;;;;;;;5082668;28;20051;-73
2022/03/16 08:23:38;;;;;;;1.77;1.25;;;;;;;;;;5074193;28;20025;-73
2022/03/16 08:26:04;;;;;;;1.40;1.30;;;;;;;;;;5072302;28;20099;-73
2022/03/16 08:28:30;;;;;;;0.50;0.50;;;;;;;;;;5070517;28;20116;-73
2022/03/16 08:30:56;;;;;;;1.77;1.67;;;;;;;;;;5066157;28;20027;-73
2022/03/16 08:33:23;;;;;;;1.05;0.93;;;;;;;;;;5073850;28;20036;-69
2022/03/16 08:35:49;;;;;;;0.85;0.85;;;;;;;;;;5075575;28;20039;-71
2022/03/16 08:38:15;;;;;;;17.52;1.73;;;;;;;;;;5064817;28;20059;-72
2022/03/16 08:40:41;;;;;;;3.05;1.52;;;;;;;;;;5082343;28;20371;-71
2022/03/16 08:43:07;;;;;;;1.92;1.73;;;;;;;;;;5063951;28;20029;-71
2022/03/16 08:45:33;;;;;;;1.00;1.00;;;;;;;;;;5083212;28;20475;-71
2022/03/16 08:47:59;;;;;;;0.80;0.68;;;;;;;;;;5070252;28;20025;-71
2022/03/16 08:50:26;;;;;;;3.83;0.70;;;;;;;;;;5065659;28;20067;-73
2022/03/16 08:52:52;;;;;;;3.45;2.13;;;;;;;;;;5083016;28;20492;-72
2022/03/16 08:55:17;;;;;;;1.10;0.65;;;;;;;;;;5073404;28;20034;-72
2022/03/16 08:57:43;;;;;;;0.60;0.60;;;;;;;;;;5078145;28;20031;-72
2022/03/16 09:00:14;;;;;;;0.98;0.98;;;;;;;;;;5078304;28;20103;-72
2022/03/16 09:02:40;;;;;;;2.42;1.95;;;;;;;;;;5083412;28;20054;-72
2022/03/16 09:05:07;;;;;;;0.40;0.40;;;;;;;;;;5080955;28;20490;-72
2022/03/16 09:07:32;;;;;;;2.00;1.83;;;;;;;;;;5068858;28;20122;-73
2022/03/16 09:09:58;;;;;;;0.77;0.77;;;;;;;;;;5074385;28;20037;-72
2022/03/16 09:12:24;;;;;;;2.00;1.65;;;;;;;;;;5065436;28;20418;-72
2022/03/16 09:14:50;;;;;;;2.05;1.80;;;;;;;;;;5069005;28;20085;-71
2022/03/16 09:17:17;;;;;;;0.15;0.15;;;;;;;;;;5071756;28;20391;-71
2022/03/16 09:19:43;;;;;;;0.50;0.50;;;;;;;;;;5074792;28;20459;-72
2022/03/16 09:22:09;;;;;;;1.17;1.08;;;;;;;;;;5075771;28;20433;-72
2022/03/16 09:24:38;;;;;;;3.55;0.65;;;;;;;;;;5075098;28;20031;-73
2022/03/16 09:27:04;;;;;;;0.85;0.60;;;;;;;;;;5080307;28;20698;-73
2022/03/16 09:29:30;;;;;;;0.50;0.50;;;;;;;;;;5076916;28;20089;-71
2022/03/16 09:31:56;;;;;;;0.80;0.30;;;;;;;;;;5075057;28;20533;-71
2022/03/16 09:34:22;;;;;;;1.45;1.02;;;;;;;;;;5064672;28;20028;-70
2022/03/16 09:36:48;;;;;;;0.55;0.55;;;;;;;;;;5075264;28;20021;-70
2022/03/16 09:39:14;;;;;;;0.55;0.55;;;;;;;;;;5082503;28;20055;-71
2022/03/16 09:41:40;;;;;;;1.10;0.77;;;;;;;;;;5081940;28;20028;-72
2022/03/16 09:44:06;;;;;;;0.30;0.30;;;;;;;;;;5071593;28;20044;-72
2022/03/16 09:46:34;;;;;;;0.63;0.55;;;;;;;;;;5078744;28;20670;-72
2022/03/16 09:49:00;;;;;;;0.65;0.65;;;;;;;;;;5067841;28;20024;-71
2022/03/16 09:51:26;;;;;;;1.15;1.05;;;;;;;;;;5077954;28;20028;-72
2022/03/16 09:53:53;;;;;;;0.40;0.40;;;;;;;;;;5079331;28;20028;-71
2022/03/16 09:56:19;;;;;;;0.65;0.55;;;;;;;;;;5067100;28;20491;-72
2022/03/16 09:58:55;;;;;;;0.68;0.68;;;;;;;;;;5080877;28;20028;-72
2022/03/16 10:01:21;;;;;;;2.75;0.90;;;;;;;;;;5083691;28;20054;-72
2022/03/16 10:03:50;;;;;;;1.55;1.45;;;;;;;;;;5080174;28;20024;-72
2022/03/16 10:06:18;;;;;;;0.55;0.55;;;;;;;;;;5080447;28;20228;-72
2022/03/16 10:14:14;;;;;;;1.38;1.27;;;;;;;;;;5079700;28;20039;-71
2022/03/16 10:19:48;;;;;;;2.47;1.05;;;;;;;;;;5075730;28;20031;-72
2022/03/16 10:22:22;;;;;;;0.30;0.30;;;;;;;;;;5083994;28;20055;-71
2022/03/16 10:24:48;;;;;;;0.40;0.38;;;;;;;;;;5074326;28;20495;-72
2022/03/16 10:27:15;;;;;;;0.57;0.47;;;;;;;;;;5068167;28;20031;-72
2022/03/16 10:29:41;;;;;;;1.02;1.00;;;;;;;;;;5073756;28;20479;-72
2022/03/16 10:32:07;;;;;;;0.08;0.08;;;;;;;;;;5077492;28;20035;-71
2022/03/16 10:34:33;;;;;;;2.50;1.75;;;;;;;;;;5086189;28;20047;-71
2022/03/16 10:36:59;;;;;;;1.08;0.63;;;;;;;;;;5081078;28;20436;-71
2022/03/16 10:39:33;;;;;;;2.03;1.00;;;;;;;;;;5077676;28;20106;-72
2022/03/16 10:47:56;;;;;;;0.93;0.93;;;;;;;;;;5084247;28;20101;-71
2022/03/16 10:50:22;;;;;;;0.25;0.25;;;;;;;;;;5084860;28;20478;-72
2022/03/16 10:52:50;;;;;;;1.08;0.38;;;;;;;;;;5082370;28;20028;-71
2022/03/16 10:55:16;;;;;;;1.08;0.98;;;;;;;;;;5081548;28;20115;-72
2022/03/16 10:57:42;;;;;;;1.60;0.63;;;;;;;;;;5077398;28;20450;-72
2022/03/16 11:00:09;;;;;;;3.33;1.30;;;;;;;;;;5068740;28;20067;-72
2022/03/16 11:02:35;;;;;;;0.50;0.50;;;;;;;;;;5077195;28;20103;-72
2022/03/16 11:05:01;;;;;;;0.40;0.35;;;;;;;;;;5077990;28;20031;-71
2022/03/16 11:07:27;;;;;;;0.85;0.85;;;;;;;;;;5074785;28;20049;-72
2022/03/16 11:09:53;;;;;;;1.02;1.02;;;;;;;;;;5081714;28;20052;-72
2022/03/16 11:15:06;;;;;;;2.17;1.65;;;;;;;;;;5066422;28;20040;-71
2022/03/16 11:17:34;;;;;;;0.43;0.43;;;;;;;;;;5073596;28;20047;-71
2022/03/16 11:20:02;;;;;;;0.77;0.43;;;;;;;;;;5074000;28;20028;-73
2022/03/16 11:22:30;;;;;;;1.08;0.65;;;;;;;;;;5079254;28;20107;-72
2022/03/16 11:25:16;;;;;;;1.88;1.75;;;;;;;;;;5069226;28;20035;-72
2022/03/16 11:27:42;;;;;;;1.02;0.77;;;;;;;;;;5078387;28;20024;-72
2022/03/16 11:30:08;;;;;;;1.73;1.05;;;;;;;;;;5072750;28;20128;-71
2022/03/16 11:32:38;;;;;;;0.17;0.17;;;;;;;;;;5086233;28;20028;-71
2022/03/16 11:35:07;;;;;;;1.27;0.77;;;;;;;;;;5084466;28;20050;-71
2022/03/16 11:37:35;;;;;;;6.20;0.63;;;;;;;;;;5065832;28;20540;-71
2022/03/16 11:40:09;;;;;;;1.98;0.85;;;;;;;;;;5071731;28;20032;-72
2022/03/16 11:42:35;;;;;;;10.43;1.13;;;;;;;;;;5072223;28;20028;-71
2022/03/16 11:45:20;;;;;;;3.75;1.67;;;;;;;;;;5086074;28;20028;-71
2022/03/16 11:47:46;;;;;;;1.35;0.98;;;;;;;;;;5074314;28;20024;-73
2022/03/16 11:50:19;;;;;;;2.08;0.60;;;;;;;;;;5073191;28;20428;-72
2022/03/16 11:53:00;;;;;;;1.38;0.93;;;;;;;;;;5082418;28;20032;-72
2022/03/16 11:55:38;;;;;;;0.77;0.77;;;;;;;;;;5080567;28;20020;-73
2022/03/16 11:58:15;;;;;;;2.05;1.55;;;;;;;;;;5080097;28;20032;-72
2022/03/16 12:00:41;;;;;;;0.63;0.63;;;;;;;;;;5078709;28;20020;-73
2022/03/16 12:03:07;;;;;;;0.93;0.85;;;;;;;;;;5082039;28;20489;-73
2022/03/16 12:05:52;;;;;;;1.25;0.95;;;;;;;;;;5085419;28;20375;-73
2022/03/16 12:08:18;;;;;;;1.77;0.85;;;;;;;;;;5083504;28;20032;-72
2022/03/16 12:10:45;;;;;;;0.55;0.55;;;;;;;;;;5075539;28;20043;-73
2022/03/16 12:13:12;;;;;;;0.32;0.32;;;;;;;;;;5077326;28;20395;-73
2022/03/16 12:15:38;;;;;;;3.35;1.52;;;;;;;;;;5083301;28;20381;-72
2022/03/16 12:18:11;;;;;;;0.47;0.47;;;;;;;;;;5063779;28;20025;-72
2022/03/16 12:20:37;;;;;;;1.30;0.28;;;;;;;;;;5077782;28;20080;-72
2022/03/16 12:23:07;;;;;;;1.85;1.55;;;;;;;;;;5076967;28;20035;-72
2022/03/16 12:25:34;;;;;;;0.63;0.57;;;;;;;;;;5075527;28;20428;-73
2022/03/16 12:31:03;;;;;;;1.60;1.50;;;;;;;;;;5075544;28;20150;-73
2022/03/16 12:33:42;;;;;;;3.42;1.20;;;;;;;;;;5068905;28;20050;-72
2022/03/16 12:36:15;;;;;;;0.55;0.38;;;;;;;;;;5081766;28;20024;-72
2022/03/16 12:38:51;;;;;;;0.47;0.30;;;;;;;;;;5073071;28;20107;-73
2022/03/16 12:44:05;;;;;;;1.38;1.05;;;;;;;;;;5071091;28;20081;-72
2022/03/16 12:46:41;;;;;;;2.65;2.03;;;;;;;;;;5078294;28;20043;-72
2022/03/16 12:49:11;;;;;;;11.73;2.85;;;;;;;;;;5061419;28;20064;-72
2022/03/16 12:51:37;;;;;;;3.33;1.90;;;;;;;;;;5062925;28;20035;-72
2022/03/16 12:54:06;;;;;;;2.05;1.88;;;;;;;;;;5078353;28;20028;-72
2022/03/16 12:56:33;;;;;;;1.48;1.40;;;;;;;;;;5071222;28;20546;-72
2022/03/16 12:58:59;;;;;;;2.72;1.13;;;;;;;;;;5078820;28;20115;-72
2022/03/16 13:01:26;;;;;;;1.35;1.25;;;;;;;;;;5086425;28;20047;-72
2022/03/16 13:04:00;;;;;;;5.68;1.38;;;;;;;;;;5088872;28;20408;-72
2022/03/16 13:06:28;;;;;;;4.88;1.77;;;;;;;;;;5086739;28;20414;-72
2022/03/16 13:08:54;;;;;;;1.15;1.08;;;;;;;;;;5082484;28;20024;-73
2022/03/16 13:11:22;;;;;;;2.05;1.85;;;;;;;;;;5085667;28;20036;-73
2022/03/16 13:13:58;;;;;;;1.23;1.00;;;;;;;;;;5088862;28;20028;-73
2022/03/16 13:16:31;;;;;;;0.88;0.82;;;;;;;;;;5079598;28;20032;-72
2022/03/16 13:18:56;;;;;;;2.10;1.60;;;;;;;;;;5081218;28;20127;-73
2022/03/16 13:21:24;;;;;;;5.45;1.95;;;;;;;;;;5081269;28;20107;-72
2022/03/16 13:23:59;;;;;;;2.42;1.77;;;;;;;;;;5087106;28;20028;-72
2022/03/16 13:26:28;;;;;;;0.95;0.80;;;;;;;;;;5083390;28;20486;-72
2022/03/16 13:28:55;;;;;;;2.65;1.75;;;;;;;;;;5082777;28;20030;-73
2022/03/16 13:31:31;;;;;;;1.85;0.93;;;;;;;;;;5070245;28;20029;-73
2022/03/16 13:34:03;;;;;;;2.25;1.90;;;;;;;;;;5078173;28;20024;-72
2022/03/16 13:36:35;;;;;;;7.63;2.85;;;;;;;;;;5076129;28;20492;-72
2022/03/16 13:39:15;;;;;;;4.07;2.20;;;;;;;;;;5071584;28;20024;-72
2022/03/16 13:42:04;;;;;;;1.63;1.30;;;;;;;;;;5087456;28;20062;-72
2022/03/16 13:44:33;;;;;;;5.35;1.23;;;;;;;;;;5078043;28;20090;-73
2022/03/16 13:46:59;;;;;;;2.22;2.03;;;;;;;;;;5079819;28;20021;-73
2022/03/16 13:49:32;;;;;;;2.42;1.48;;;;;;;;;;5076105;28;20639;-71
2022/03/16 13:52:02;;;;;;;1.80;1.35;;;;;;;;;;5085181;28;20441;-71
2022/03/16 13:54:28;;;;;;;1.73;1.38;;;;;;;;;;5086846;28;20031;-71
2022/03/16 13:56:54;;;;;;;2.92;1.67;;;;;;;;;;5087078;28;20024;-71
2022/03/16 13:59:20;;;;;;;1.75;1.65;;;;;;;;;;5082390;28;20043;-70
2022/03/16 14:01:46;;;;;;;5.25;2.65;;;;;;;;;;5093221;28;20023;-71
2022/03/16 14:04:18;;;;;;;4.95;2.72;;;;;;;;;;5074782;28;20036;-72
2022/03/16 14:06:47;;;;;;;5.50;2.53;;;;;;;;;;5089635;28;20040;-72
2022/03/16 14:09:13;;;;;;;2.63;1.73;;;;;;;;;;5084361;28;20020;-72
2022/03/16 14:11:39;;;;;;;12.00;2.75;;;;;;;;;;5091767;28;20036;-71
2022/03/16 14:14:11;;;;;;;2.45;2.08;;;;;;;;;;5091961;28;20060;-72
2022/03/16 14:16:38;;;;;;;4.57;3.30;;;;;;;;;;5081895;28;20433;-72
2022/03/16 14:19:23;;;;;;;3.55;1.92;;;;;;;;;;5077451;28;20107;-72
2022/03/16 14:21:49;;;;;;;7.72;2.60;;;;;;;;;;5076609;28;20062;-71
2022/03/16 14:24:15;;;;;;;8.30;2.28;;;;;;;;;;5085474;28;20055;-73
2022/03/16 14:26:41;;;;;;;7.00;2.83;;;;;;;;;;5078888;28;20421;-72
2022/03/16 14:29:07;;;;;;;1.25;1.13;;;;;;;;;;5083170;28;20028;-72
2022/03/16 14:31:33;;;;;;;0.73;0.60;;;;;;;;;;5089276;28;20043;-72
2022/03/16 14:34:00;;;;;;;3.35;2.03;;;;;;;;;;5075346;28;20519;-73
2022/03/16 14:36:32;;;;;;;4.43;3.10;;;;;;;;;;5083246;28;20119;-72
2022/03/16 14:38:58;;;;;;;3.33;2.55;;;;;;;;;;5087454;28;20031;-72
2022/03/16 14:41:24;;;;;;;1.35;1.25;;;;;;;;;;5076373;28;20029;-73
2022/03/16 14:43:50;;;;;;;1.63;1.15;;;;;;;;;;5088313;28;20063;-73
2022/03/16 14:46:16;;;;;;;11.15;1.95;;;;;;;;;;5088044;28;20109;-72
2022/03/16 14:48:42;;;;;;;1.70;1.60;;;;;;;;;;5076961;28;20720;-73
2022/03/16 14:51:08;;;;;;;5.70;1.80;;;;;;;;;;5077455;28;20024;-73
2022/03/16 14:53:34;;;;;;;6.95;2.42;;;;;;;;;;5078074;28;20017;-73
2022/03/16 14:56:00;;;;;;;4.45;2.90;;;;;;;;;;5081768;28;20080;-73
2022/03/16 14:58:26;;;;;;;1.55;1.13;;;;;;;;;;5082277;28;20016;-74
2022/03/16 15:00:52;;;;;;;2.45;1.52;;;;;;;;;;5077406;28;20019;-73
2022/03/16 15:03:18;;;;;;;1.83;1.42;;;;;;;;;;5086301;28;20511;-73
2022/03/16 15:05:44;;;;;;;3.58;1.67;;;;;;;;;;5076096;28;20029;-77